Time;durP1;ratioP1;P1;durP2;ratioP2;P2;SDS_P1;SDS_P2;PMS_P1;PMS_P2;Temp;Humidity;BMP_temperature;BMP_pressure;BME280_temperature;BME280_humidity;BME280_pressure;Samples;Min_cycle;Max_cycle;Signal;HPM_P1;HPM_P2
2021/12/25 00:01:26;;;;;;;0.80;0.50;;;-1.70;99.90;;;;;;5120017;28;20432;-46
2021/12/25 00:03:54;;;;;;;0.90;0.70;;;-1.70;99.90;;;;;;5119481;28;20455;-45
2021/12/25 00:06:24;;;;;;;1.30;0.73;;;-0.60;99.90;;;;;;5118813;28;20440;-52
2021/12/25 00:08:51;;;;;;;0.90;0.70;;;-0.10;99.90;;;;;;5119831;28;20407;-48
2021/12/25 00:11:17;;;;;;;0.80;0.50;;;-0.40;99.90;;;;;;5119778;28;20443;-48
2021/12/25 00:13:44;;;;;;;1.00;0.60;;;-0.70;99.90;;;;;;5119417;28;20466;-50
2021/12/25 00:16:11;;;;;;;3.10;0.90;;;-0.90;99.90;;;;;;5119752;28;20424;-46
2021/12/25 00:18:39;;;;;;;0.80;0.50;;;-1.10;99.90;;;;;;5119088;28;20481;-51
2021/12/25 00:21:07;;;;;;;94.40;2.40;;;-1.20;99.90;;;;;;5119362;28;20470;-54
2021/12/25 00:23:35;;;;;;;0.90;0.60;;;-1.30;99.90;;;;;;5119358;28;20445;-50
2021/12/25 00:26:07;;;;;;;1.20;0.67;;;-1.40;99.90;;;;;;5119170;28;20463;-49
2021/12/25 00:31:47;;;;;;;0.90;0.70;;;-1.50;99.90;;;;;;5118885;28;20471;-51
2021/12/25 00:34:15;;;;;;;1.33;0.80;;;-1.50;99.90;;;;;;5119318;28;20424;-52
2021/12/25 00:36:42;;;;;;;2.23;1.63;;;-1.50;99.90;;;;;;5119008;28;20472;-48
2021/12/25 00:39:10;;;;;;;1.33;0.70;;;-1.60;99.90;;;;;;5118525;28;20455;-50
2021/12/25 00:41:37;;;;;;;0.90;0.57;;;-1.60;99.90;;;;;;5118905;28;20481;-46
2021/12/25 00:44:04;;;;;;;1.10;0.87;;;-1.60;99.90;;;;;;5118916;28;20912;-44
2021/12/25 00:46:31;;;;;;;0.90;0.80;;;-1.70;99.90;;;;;;5119161;28;20468;-43
2021/12/25 00:48:57;;;;;;;3.33;1.73;;;-1.70;99.90;;;;;;5118861;28;20482;-51
2021/12/25 00:51:24;;;;;;;0.90;0.60;;;-1.70;99.90;;;;;;5119172;28;20451;-53
2021/12/25 00:53:51;;;;;;;0.80;0.50;;;-1.70;99.90;;;;;;5119039;28;20436;-51
2021/12/25 00:56:19;;;;;;;2.90;1.37;;;-1.70;99.90;;;;;;5118365;28;20468;-42
2021/12/25 00:58:46;;;;;;;5.83;1.03;;;-1.80;99.90;;;;;;5117757;28;20458;-51
2021/12/25 01:01:13;;;;;;;0.97;0.63;;;-1.80;99.90;;;;;;5118704;28;20438;-44
2021/12/25 01:03:42;;;;;;;1.13;1.03;;;-1.80;99.90;;;;;;5118466;28;20459;-49
2021/12/25 01:06:09;;;;;;;0.80;0.50;;;-1.70;99.90;;;;;;5117731;28;20436;-47
2021/12/25 01:08:35;;;;;;;2.03;0.70;;;-1.80;99.90;;;;;;5118331;28;20443;-50
2021/12/25 01:11:02;;;;;;;5.37;0.90;;;-1.80;99.90;;;;;;5117771;28;20438;-48
2021/12/25 01:13:35;;;;;;;0.90;0.60;;;-1.80;99.90;;;;;;5117728;28;20497;-48
2021/12/25 01:16:16;;;;;;;0.80;0.50;;;-1.80;99.90;;;;;;5118713;28;20438;-49
2021/12/25 01:22:00;;;;;;;1.47;0.80;;;-1.80;99.90;;;;;;5118403;28;20829;-52
2021/12/25 01:24:42;;;;;;;0.90;0.60;;;-1.90;99.90;;;;;;5118254;28;20466;-49
2021/12/25 01:29:55;;;;;;;7.10;1.80;;;-1.90;99.90;;;;;;5117825;28;20432;-53
2021/12/25 01:35:23;;;;;;;1.00;0.70;;;-1.80;99.90;;;;;;5104784;28;20429;-45
2021/12/25 01:38:02;;;;;;;1.77;1.27;;;-1.70;99.90;;;;;;5118123;28;20451;-48
2021/12/25 01:40:48;;;;;;;0.90;0.60;;;-1.80;99.90;;;;;;5117771;28;20469;-51
2021/12/25 01:48:45;;;;;;;1.00;0.70;;;-1.80;99.90;;;;;;5117716;28;20450;-49
2021/12/25 01:51:13;;;;;;;0.80;0.50;;;-1.80;99.90;;;;;;5117724;28;20957;-52
2021/12/25 01:53:40;;;;;;;1.30;0.80;;;-1.90;99.90;;;;;;5117240;28;20439;-47
2021/12/25 01:56:08;;;;;;;1.20;1.10;;;-1.90;99.90;;;;;;5117713;28;20422;-48
2021/12/25 01:58:36;;;;;;;3.80;1.43;;;-1.90;99.90;;;;;;5117686;28;20443;-46
2021/12/25 02:01:06;;;;;;;0.80;0.50;;;-1.90;99.90;;;;;;5117797;28;20487;-45
2021/12/25 02:03:35;;;;;;;0.87;0.60;;;-1.90;99.90;;;;;;5117166;28;20435;-48
2021/12/25 02:06:03;;;;;;;0.90;0.60;;;-1.90;99.90;;;;;;5117628;28;20452;-48
2021/12/25 02:08:30;;;;;;;4.87;1.37;;;-1.90;99.90;;;;;;5118009;28;20450;-52
2021/12/25 02:10:57;;;;;;;2.27;1.30;;;-1.90;99.90;;;;;;5117973;28;20486;-54
2021/12/25 02:13:24;;;;;;;3.40;0.90;;;-1.90;99.90;;;;;;5116940;28;20443;-45
2021/12/25 02:15:54;;;;;;;0.90;0.60;;;-2.00;99.90;;;;;;5117703;28;20517;-44
2021/12/25 02:18:27;;;;;;;0.80;0.50;;;-2.00;99.90;;;;;;5116965;28;20476;-49
2021/12/25 02:21:02;;;;;;;0.80;0.50;;;-2.00;99.90;;;;;;5116922;28;20455;-48
2021/12/25 02:23:32;;;;;;;1.10;0.60;;;-2.00;99.90;;;;;;5116241;28;20476;-50
2021/12/25 02:25:59;;;;;;;0.90;0.53;;;-2.10;99.90;;;;;;5116844;28;20430;-52
2021/12/25 02:28:27;;;;;;;0.80;0.50;;;-2.20;99.90;;;;;;5116756;28;20476;-51
2021/12/25 02:30:57;;;;;;;1.10;0.77;;;-2.20;99.90;;;;;;5117003;28;20447;-50
2021/12/25 02:33:26;;;;;;;0.80;0.50;;;-2.20;99.90;;;;;;5117103;28;20463;-52
2021/12/25 02:35:55;;;;;;;0.87;0.60;;;-2.20;99.90;;;;;;5116771;28;20481;-51
2021/12/25 02:38:22;;;;;;;1.00;0.63;;;-2.20;99.90;;;;;;5117037;28;20441;-48
2021/12/25 02:40:50;;;;;;;0.80;0.50;;;-2.20;99.90;;;;;;5116517;28;20507;-48
2021/12/25 02:43:17;;;;;;;0.80;0.50;;;-2.20;99.90;;;;;;5116657;28;20465;-52
2021/12/25 02:45:44;;;;;;;0.90;0.60;;;-2.20;99.90;;;;;;5116472;28;20456;-47
2021/12/25 02:48:15;;;;;;;0.90;0.60;;;-2.20;99.90;;;;;;5116382;28;20426;-50
2021/12/25 02:50:42;;;;;;;1.40;0.80;;;-2.20;99.90;;;;;;5116192;28;20453;-52
2021/12/25 02:53:11;;;;;;;0.83;0.60;;;-2.20;99.90;;;;;;5116518;28;20452;-48
2021/12/25 02:55:40;;;;;;;1.23;0.80;;;-2.20;99.90;;;;;;5116184;28;20463;-48
2021/12/25 02:58:07;;;;;;;0.90;0.60;;;-2.10;99.90;;;;;;5116187;28;20466;-49
2021/12/25 03:00:38;;;;;;;4.70;1.30;;;-2.20;99.90;;;;;;5115967;28;20482;-48
2021/12/25 03:03:07;;;;;;;1.00;0.60;;;-2.20;99.90;;;;;;5116270;28;20438;-46
2021/12/25 03:05:34;;;;;;;0.87;0.60;;;-2.20;99.90;;;;;;5116091;28;20457;-49
2021/12/25 03:08:00;;;;;;;0.90;0.60;;;-2.30;99.90;;;;;;5116405;28;20447;-47
2021/12/25 03:10:33;;;;;;;1.10;0.80;;;-2.30;99.90;;;;;;5116415;28;20462;-47
2021/12/25 03:13:17;;;;;;;1.43;1.07;;;-2.30;99.90;;;;;;5116332;28;20431;-51
2021/12/25 03:15:47;;;;;;;0.80;0.53;;;-2.40;99.90;;;;;;5116376;28;20452;-49
2021/12/25 03:18:14;;;;;;;0.90;0.60;;;-2.40;99.90;;;;;;5116355;28;20446;-46
2021/12/25 03:20:44;;;;;;;1.10;0.60;;;-2.40;99.90;;;;;;5116354;28;20471;-50
2021/12/25 03:23:12;;;;;;;0.80;0.50;;;-2.40;99.90;;;;;;5116456;28;20446;-48
2021/12/25 03:25:40;;;;;;;0.80;0.60;;;-2.50;99.90;;;;;;5116183;28;20439;-53
2021/12/25 03:28:07;;;;;;;0.90;0.50;;;-2.50;99.90;;;;;;5116311;28;20452;-49
2021/12/25 03:30:37;;;;;;;0.90;0.77;;;-2.50;99.90;;;;;;5116541;28;20438;-48
2021/12/25 03:33:04;;;;;;;0.90;0.50;;;-2.50;99.90;;;;;;5115846;28;20467;-46
2021/12/25 03:35:33;;;;;;;2.47;0.70;;;-2.40;99.90;;;;;;5120081;28;20411;-50
2021/12/25 03:38:00;;;;;;;0.90;0.60;;;-2.50;99.90;;;;;;5120159;28;20479;-48
2021/12/25 03:40:26;;;;;;;1.27;0.70;;;-2.40;99.90;;;;;;5120163;28;20465;-52
2021/12/25 03:42:55;;;;;;;3.20;1.03;;;-2.50;99.90;;;;;;5120084;28;20442;-48
2021/12/25 03:45:22;;;;;;;0.80;0.50;;;-2.50;99.90;;;;;;5119664;28;20468;-50
2021/12/25 03:47:51;;;;;;;1.00;0.60;;;-2.50;99.90;;;;;;5119816;28;20444;-52
2021/12/25 03:53:10;;;;;;;0.80;0.50;;;-2.60;99.90;;;;;;5119778;28;20409;-47
2021/12/25 03:58:27;;;;;;;3.10;0.90;;;-2.60;99.90;;;;;;5120348;28;20418;-50
2021/12/25 04:01:00;;;;;;;0.90;0.50;;;-2.70;99.90;;;;;;5119792;28;20462;-53
2021/12/25 04:03:40;;;;;;;0.90;0.60;;;-2.80;99.90;;;;;;5119659;28;20470;-51
2021/12/25 04:06:09;;;;;;;0.90;0.60;;;-2.80;99.90;;;;;;5119956;28;20431;-58
2021/12/25 04:08:42;;;;;;;1.10;0.80;;;-2.80;99.90;;;;;;5119339;28;20465;-45
2021/12/25 04:11:13;;;;;;;5.53;0.93;;;-2.80;99.90;;;;;;5119660;28;20414;-44
2021/12/25 04:13:41;;;;;;;0.90;0.50;;;-2.80;99.90;;;;;;5119705;28;20413;-42
2021/12/25 04:16:08;;;;;;;0.90;0.50;;;-2.80;99.90;;;;;;5119121;28;20462;-49
2021/12/25 04:18:35;;;;;;;2.17;1.10;;;-2.80;99.90;;;;;;5119361;28;20437;-45
2021/12/25 04:21:01;;;;;;;2.33;0.93;;;-2.80;99.90;;;;;;5119135;28;20467;-51
2021/12/25 04:23:29;;;;;;;0.90;0.60;;;-2.80;99.90;;;;;;5119676;28;20436;-47
2021/12/25 04:25:57;;;;;;;0.90;0.50;;;-2.80;99.90;;;;;;5119479;28;20477;-44
2021/12/25 04:28:35;;;;;;;0.90;0.60;;;-2.80;99.90;;;;;;5119140;28;20434;-48
2021/12/25 04:31:22;;;;;;;0.90;0.60;;;-2.80;99.90;;;;;;5119091;28;20407;-46
2021/12/25 04:47:57;;;;;;;0.80;0.50;;;-2.90;99.90;;;;;;5120086;28;20421;-44
2021/12/25 05:01:41;;;;;;;0.90;0.60;;;-2.90;99.90;;;;;;5119775;28;20448;-53
2021/12/25 05:01:48;;;;;;;0.90;0.60;;;-2.80;99.90;;;;;;5118261;28;20484;-50
2021/12/25 05:04:21;;;;;;;0.90;0.60;;;-2.80;99.90;;;;;;5118724;28;20450;-53
2021/12/25 05:06:48;;;;;;;1.30;1.00;;;-2.70;99.90;;;;;;5118120;28;20446;-51
2021/12/25 05:09:16;;;;;;;1.17;0.63;;;-2.70;99.90;;;;;;5118694;28;20426;-48
2021/12/25 05:11:43;;;;;;;0.80;0.60;;;-2.70;99.90;;;;;;5118625;28;20431;-47
2021/12/25 05:14:10;;;;;;;0.90;0.80;;;-2.70;99.90;;;;;;5117934;28;20442;-47
2021/12/25 05:16:37;;;;;;;1.60;1.33;;;-2.70;99.90;;;;;;5118214;28;20441;-50
2021/12/25 05:19:04;;;;;;;0.80;0.50;;;-2.70;99.90;;;;;;5117952;28;20453;-52
2021/12/25 05:21:32;;;;;;;1.20;0.70;;;-2.70;99.90;;;;;;5117883;28;20498;-47
2021/12/25 05:23:59;;;;;;;0.90;0.53;;;-2.70;99.90;;;;;;5117865;28;20461;-44
2021/12/25 05:26:26;;;;;;;1.00;0.67;;;-2.70;99.90;;;;;;5117833;28;20713;-49
2021/12/25 05:28:59;;;;;;;2.53;0.67;;;-2.70;99.90;;;;;;5118175;28;20445;-50
2021/12/25 05:31:27;;;;;;;1.30;0.70;;;-2.60;99.90;;;;;;5118031;28;20467;-52
2021/12/25 05:33:54;;;;;;;1.93;1.33;;;-2.70;99.90;;;;;;5117772;28;20463;-48
2021/12/25 05:36:21;;;;;;;1.53;0.80;;;-2.70;99.90;;;;;;5117958;28;20455;-45
2021/12/25 05:38:55;;;;;;;0.90;0.60;;;-2.70;99.90;;;;;;5117699;28;20434;-49
2021/12/25 05:41:26;;;;;;;0.90;0.60;;;-2.70;99.90;;;;;;5117945;28;20466;-49
2021/12/25 05:43:54;;;;;;;1.27;0.80;;;-2.70;99.90;;;;;;5117657;28;20453;-47
2021/12/25 05:46:27;;;;;;;1.20;1.00;;;-2.80;99.90;;;;;;5117851;28;20438;-50
2021/12/25 05:48:53;;;;;;;0.90;0.60;;;-2.80;99.90;;;;;;5117723;28;20447;-50
2021/12/25 05:51:20;;;;;;;0.83;0.60;;;-2.80;99.90;;;;;;5117767;28;20449;-49
2021/12/25 05:53:48;;;;;;;1.63;1.17;;;-2.80;99.90;;;;;;5117443;28;20450;-52
2021/12/25 05:56:16;;;;;;;0.90;0.60;;;-2.80;99.90;;;;;;5117574;28;20434;-50
2021/12/25 05:58:43;;;;;;;2.60;1.23;;;-2.80;99.90;;;;;;5117262;28;20463;-49
2021/12/25 06:01:11;;;;;;;1.10;0.67;;;-2.90;99.90;;;;;;5117856;28;20446;-48
2021/12/25 06:03:38;;;;;;;0.90;0.60;;;-2.90;99.90;;;;;;5117413;28;20443;-49
2021/12/25 06:06:06;;;;;;;0.80;0.50;;;-2.90;99.90;;;;;;5117834;28;20442;-52
2021/12/25 06:08:33;;;;;;;0.90;0.63;;;-2.90;99.90;;;;;;5117598;28;20427;-45
2021/12/25 06:11:02;;;;;;;0.80;0.60;;;-2.90;99.90;;;;;;5117525;28;20455;-49
2021/12/25 06:13:29;;;;;;;1.20;0.60;;;-2.90;99.90;;;;;;5117206;28;20439;-50
2021/12/25 06:15:57;;;;;;;1.10;0.70;;;-2.90;99.90;;;;;;5117071;28;20468;-48
2021/12/25 06:18:24;;;;;;;1.40;1.00;;;-2.90;99.90;;;;;;5117017;28;20443;-49
2021/12/25 06:20:51;;;;;;;3.27;0.70;;;-2.90;99.90;;;;;;5116771;28;20489;-49
2021/12/25 06:23:18;;;;;;;0.80;0.50;;;-2.90;99.90;;;;;;5117052;28;20460;-48
2021/12/25 06:25:44;;;;;;;1.10;0.77;;;-2.90;99.90;;;;;;5116844;28;20464;-48
2021/12/25 06:28:12;;;;;;;11.03;1.10;;;-2.90;99.90;;;;;;5099115;28;20497;-50
2021/12/25 06:30:41;;;;;;;0.90;0.70;;;-2.90;99.90;;;;;;5117091;28;20934;-49
2021/12/25 06:33:07;;;;;;;1.00;0.90;;;-3.00;99.90;;;;;;5117252;28;20461;-51
2021/12/25 06:35:34;;;;;;;0.97;0.73;;;-2.90;99.90;;;;;;5116569;28;20495;-49
2021/12/25 06:38:01;;;;;;;0.90;0.67;;;-3.00;99.90;;;;;;5116735;28;20454;-49
2021/12/25 06:40:27;;;;;;;1.30;0.80;;;-3.00;99.90;;;;;;5117111;28;20515;-41
2021/12/25 06:42:54;;;;;;;0.80;0.50;;;-3.00;99.90;;;;;;5116993;28;20495;-43
2021/12/25 06:45:22;;;;;;;0.80;0.50;;;-3.10;99.90;;;;;;5116777;28;20438;-43
2021/12/25 06:47:49;;;;;;;0.90;0.60;;;-3.10;99.90;;;;;;5117090;28;20426;-51
2021/12/25 06:50:16;;;;;;;1.87;1.23;;;-3.10;99.90;;;;;;5116400;28;20430;-50
2021/12/25 06:52:45;;;;;;;0.80;0.50;;;-3.10;99.90;;;;;;5116372;28;20485;-47
2021/12/25 06:55:13;;;;;;;1.00;0.60;;;-3.10;99.90;;;;;;5116352;28;20449;-46
2021/12/25 06:57:47;;;;;;;0.80;0.50;;;-3.00;99.90;;;;;;5116425;28;20461;-50
2021/12/25 07:00:18;;;;;;;0.80;0.50;;;-3.10;99.90;;;;;;5116143;28;20491;-53
2021/12/25 07:02:52;;;;;;;1.00;0.80;;;-3.10;99.90;;;;;;5116498;28;20468;-52
2021/12/25 07:05:19;;;;;;;3.60;1.20;;;-3.10;99.90;;;;;;5115878;28;20432;-51
2021/12/25 07:07:46;;;;;;;10.50;0.80;;;-3.10;99.90;;;;;;5115649;28;20422;-46
2021/12/25 07:10:13;;;;;;;1.30;1.17;;;-3.10;99.90;;;;;;5115693;28;20466;-55
2021/12/25 07:12:44;;;;;;;1.00;0.80;;;-3.10;99.90;;;;;;5116330;28;20467;-47
2021/12/25 07:15:10;;;;;;;1.10;0.80;;;-3.00;99.90;;;;;;5116143;28;20465;-51
2021/12/25 07:17:45;;;;;;;0.80;0.50;;;-3.00;99.90;;;;;;5116086;28;20457;-50
2021/12/25 07:20:13;;;;;;;1.00;0.90;;;-3.10;99.90;;;;;;5117101;28;20443;-51
2021/12/25 07:22:40;;;;;;;0.90;0.50;;;-3.10;99.90;;;;;;5116833;28;20440;-49
2021/12/25 07:25:09;;;;;;;0.90;0.60;;;-3.10;99.90;;;;;;5116694;28;20442;-45
2021/12/25 07:27:39;;;;;;;1.37;1.27;;;-3.00;99.90;;;;;;5116443;28;20477;-49
2021/12/25 07:30:09;;;;;;;0.90;0.70;;;-3.10;99.90;;;;;;5116535;28;20472;-47
2021/12/25 07:32:36;;;;;;;0.90;0.57;;;-3.00;99.90;;;;;;5115842;28;20449;-44
2021/12/25 07:35:03;;;;;;;1.00;0.67;;;-3.00;99.90;;;;;;5116204;28;20490;-50
2021/12/25 07:37:32;;;;;;;0.90;0.70;;;-3.00;99.90;;;;;;5116105;28;20488;-52
2021/12/25 07:39:59;;;;;;;0.90;0.60;;;-3.00;99.90;;;;;;5116223;28;20452;-50
2021/12/25 07:42:25;;;;;;;2.40;0.87;;;-3.00;99.90;;;;;;5116360;28;20479;-51
2021/12/25 07:44:55;;;;;;;1.40;1.07;;;-3.00;99.90;;;;;;5116035;28;20419;-48
2021/12/25 07:47:23;;;;;;;1.00;0.70;;;-3.00;99.90;;;;;;5116277;28;20446;-55
2021/12/25 07:49:50;;;;;;;2.07;0.80;;;-3.00;99.90;;;;;;5116262;28;20477;-46
2021/12/25 07:52:17;;;;;;;0.90;0.70;;;-3.00;99.90;;;;;;5115822;28;20420;-42
2021/12/25 07:54:45;;;;;;;1.83;0.77;;;-3.00;99.90;;;;;;5115866;28;20441;-50
2021/12/25 07:57:12;;;;;;;2.53;0.73;;;-2.90;99.90;;;;;;5115876;28;20476;-56
2021/12/25 07:59:38;;;;;;;1.23;1.13;;;-2.90;99.90;;;;;;5115563;28;20446;-48
2021/12/25 08:02:05;;;;;;;2.33;1.37;;;-2.90;99.90;;;;;;5115523;28;20481;-49
2021/12/25 08:04:32;;;;;;;1.00;0.83;;;-2.80;99.90;;;;;;5115384;28;20479;-47
2021/12/25 08:06:59;;;;;;;1.20;0.90;;;-2.80;99.90;;;;;;5115736;28;20440;-45
2021/12/25 08:09:29;;;;;;;1.00;0.90;;;-2.70;99.90;;;;;;5115191;28;20444;-49
2021/12/25 08:11:58;;;;;;;6.20;1.00;;;-2.70;99.90;;;;;;5115721;28;20475;-48
2021/12/25 08:14:26;;;;;;;2.30;1.63;;;-2.70;99.90;;;;;;5116008;28;20468;-47
2021/12/25 08:16:54;;;;;;;1.53;1.07;;;-2.60;99.90;;;;;;5115688;28;20462;-48
2021/12/25 08:19:21;;;;;;;1.50;0.87;;;-2.60;99.90;;;;;;5116390;28;20449;-53
2021/12/25 08:21:48;;;;;;;1.30;0.90;;;-2.60;99.90;;;;;;5118278;28;20489;-52
2021/12/25 08:24:15;;;;;;;0.90;0.70;;;-2.50;99.90;;;;;;5119468;28;20423;-47
2021/12/25 08:26:42;;;;;;;2.10;0.83;;;-2.50;99.90;;;;;;5118963;28;20482;-44
2021/12/25 08:29:10;;;;;;;1.50;1.20;;;-2.50;99.90;;;;;;5118744;28;20434;-49
2021/12/25 08:31:37;;;;;;;1.43;0.93;;;-2.50;99.90;;;;;;5119408;28;20443;-42
2021/12/25 08:34:04;;;;;;;1.67;1.27;;;-2.50;99.90;;;;;;5118611;28;20447;-49
2021/12/25 08:36:31;;;;;;;0.90;0.60;;;-2.40;99.90;;;;;;5119111;28;20455;-43
2021/12/25 08:38:58;;;;;;;0.87;0.60;;;-2.50;99.90;;;;;;5117137;28;20450;-44
2021/12/25 08:41:30;;;;;;;2.73;1.27;;;-2.50;99.90;;;;;;5115944;28;20504;-47
2021/12/25 08:44:04;;;;;;;1.10;0.77;;;-2.50;99.90;;;;;;5116941;28;20434;-46
2021/12/25 08:46:45;;;;;;;5.00;1.30;;;-2.40;99.90;;;;;;5116832;28;20445;-46
2021/12/25 08:49:16;;;;;;;1.63;0.90;;;-2.40;99.90;;;;;;5116092;28;20520;-48
2021/12/25 08:51:44;;;;;;;0.90;0.77;;;-2.40;99.90;;;;;;5115826;28;20422;-46
2021/12/25 08:54:11;;;;;;;1.93;0.83;;;-2.40;99.90;;;;;;5116370;28;20450;-45
2021/12/25 08:56:38;;;;;;;8.50;1.13;;;-2.40;99.90;;;;;;5116275;28;20442;-44
2021/12/25 08:59:04;;;;;;;1.00;0.70;;;-2.40;99.90;;;;;;5118469;28;20534;-51
2021/12/25 09:01:33;;;;;;;1.00;0.83;;;-2.40;99.90;;;;;;5118081;28;20508;-43
2021/12/25 09:04:00;;;;;;;1.40;1.20;;;0.20;99.90;;;;;;5117253;28;20493;-50
2021/12/25 09:06:27;;;;;;;2.10;1.33;;;1.90;99.90;;;;;;5116773;28;20455;-46
2021/12/25 09:08:54;;;;;;;2.03;1.07;;;2.60;99.90;;;;;;5116919;28;20465;-46
2021/12/25 09:11:21;;;;;;;1.50;1.00;;;1.60;99.90;;;;;;5117980;28;20445;-55
2021/12/25 09:13:48;;;;;;;1.20;0.80;;;0.80;99.90;;;;;;5118248;28;20475;-49
2021/12/25 09:16:16;;;;;;;1.10;0.77;;;0.20;99.90;;;;;;5115846;28;20441;-49
2021/12/25 09:18:45;;;;;;;1.70;1.13;;;-0.30;99.90;;;;;;5114942;28;20458;-47
2021/12/25 09:21:12;;;;;;;3.00;1.27;;;-0.60;99.90;;;;;;5114397;28;20461;-45
2021/12/25 09:23:39;;;;;;;0.90;0.70;;;-0.70;99.90;;;;;;5115155;28;20443;-47
2021/12/25 09:26:06;;;;;;;6.40;1.43;;;-0.80;99.90;;;;;;5114052;28;20456;-46
2021/12/25 09:28:33;;;;;;;1.00;0.63;;;-1.00;99.90;;;;;;5114095;28;20461;-48
2021/12/25 09:30:59;;;;;;;3.17;1.40;;;-1.20;99.90;;;;;;5113683;28;20464;-54
2021/12/25 09:33:26;;;;;;;1.20;1.10;;;-1.30;99.90;;;;;;5113924;28;20444;-54
2021/12/25 09:35:55;;;;;;;11.23;2.00;;;-1.30;99.90;;;;;;5113740;28;20465;-51
2021/12/25 09:38:21;;;;;;;1.97;1.40;;;-1.40;99.90;;;;;;5113465;28;20548;-48
2021/12/25 09:40:48;;;;;;;0.90;0.67;;;-1.50;99.90;;;;;;5114000;28;20455;-51
2021/12/25 09:43:18;;;;;;;3.93;2.53;;;-1.50;99.90;;;;;;5118189;28;20459;-49
2021/12/25 09:45:45;;;;;;;1.20;0.63;;;-1.50;99.90;;;;;;5117274;28;20444;-47
2021/12/25 09:48:12;;;;;;;1.87;1.10;;;-1.50;99.90;;;;;;5118172;28;20459;-46
2021/12/25 09:50:38;;;;;;;1.70;1.60;;;-1.50;99.90;;;;;;5118322;28;20440;-47
2021/12/25 09:53:09;;;;;;;1.43;1.33;;;-1.50;99.90;;;;;;5118210;28;20566;-45
2021/12/25 09:55:38;;;;;;;3.37;1.60;;;-1.40;99.90;;;;;;5118172;28;20423;-41
2021/12/25 09:58:05;;;;;;;10.43;1.77;;;-1.40;99.90;;;;;;5117885;28;20437;-49
2021/12/25 10:00:34;;;;;;;1.50;0.80;;;-1.30;99.90;;;;;;5118166;28;20463;-46
2021/12/25 10:03:01;;;;;;;1.73;0.90;;;-1.20;99.90;;;;;;5117878;28;20982;-52
2021/12/25 10:05:30;;;;;;;1.10;1.00;;;-1.00;99.90;;;;;;5117306;28;20473;-47
2021/12/25 10:08:11;;;;;;;4.40;1.90;;;-0.60;99.90;;;;;;5117162;28;20476;-45
2021/12/25 10:10:41;;;;;;;1.13;0.90;;;-0.40;99.90;;;;;;5116583;28;20466;-46
2021/12/25 10:13:23;;;;;;;1.40;1.30;;;-0.10;99.90;;;;;;5115754;28;20442;-47
2021/12/25 10:15:50;;;;;;;1.47;1.27;;;0.50;99.90;;;;;;5114143;28;20468;-49
2021/12/25 10:18:26;;;;;;;6.27;1.70;;;1.50;99.90;;;;;;5112992;28;20486;-47
2021/12/25 10:20:53;;;;;;;4.87;2.50;;;2.40;99.90;;;;;;5111174;28;20546;-47
2021/12/25 10:23:28;;;;;;;2.17;1.63;;;3.10;99.90;;;;;;5110099;28;20478;-45
2021/12/25 10:25:58;;;;;;;1.83;1.13;;;3.60;99.80;;;;;;5110690;28;20469;-48
2021/12/25 10:28:29;;;;;;;3.20;0.77;;;3.60;96.80;;;;;;5111295;28;20441;-44
2021/12/25 10:30:59;;;;;;;2.30;0.70;;;3.30;94.60;;;;;;5113121;28;20472;-44
2021/12/25 10:33:29;;;;;;;1.10;1.00;;;2.70;92.40;;;;;;5115292;28;20469;-46
2021/12/25 10:35:58;;;;;;;1.20;0.80;;;2.20;93.90;;;;;;5115444;28;20545;-45
2021/12/25 10:38:29;;;;;;;1.23;0.93;;;1.70;93.50;;;;;;5116767;28;20425;-46
2021/12/25 10:41:17;;;;;;;1.10;0.77;;;1.20;95.40;;;;;;5116803;28;20488;-51
2021/12/25 10:43:44;;;;;;;1.90;1.00;;;0.90;99.90;;;;;;5115642;28;20433;-44
2021/12/25 10:46:11;;;;;;;7.00;2.50;;;0.60;99.90;;;;;;5116159;28;20634;-47
2021/12/25 10:48:38;;;;;;;1.07;0.83;;;0.40;99.90;;;;;;5116143;28;20425;-44
2021/12/25 10:51:05;;;;;;;1.10;0.80;;;0.30;99.90;;;;;;5116440;28;20441;-45
2021/12/25 10:53:40;;;;;;;1.10;0.87;;;0.20;99.90;;;;;;5116762;28;20442;-48
2021/12/25 10:56:10;;;;;;;1.93;0.80;;;0.10;99.90;;;;;;5116499;28;20425;-40
2021/12/25 10:58:39;;;;;;;5.00;1.57;;;0.00;99.90;;;;;;5116617;28;20444;-49
2021/12/25 11:01:07;;;;;;;1.80;1.20;;;-0.10;99.90;;;;;;5116726;28;20421;-50
2021/12/25 11:03:36;;;;;;;1.30;0.97;;;-0.20;99.90;;;;;;5115813;28;20977;-50
2021/12/25 11:06:08;;;;;;;1.20;0.80;;;-0.30;99.90;;;;;;5115648;28;20736;-43
2021/12/25 11:08:37;;;;;;;1.20;0.80;;;-0.30;99.90;;;;;;5116565;28;20408;-50
2021/12/25 11:11:07;;;;;;;1.80;1.10;;;-0.40;99.90;;;;;;5116462;28;20450;-43
2021/12/25 11:13:36;;;;;;;1.20;0.80;;;-0.40;99.90;;;;;;5116660;28;20509;-49
2021/12/25 11:16:21;;;;;;;3.20;1.20;;;-0.40;99.90;;;;;;5116476;28;20434;-44
2021/12/25 11:19:03;;;;;;;1.90;1.03;;;-0.40;99.90;;;;;;5116268;28;20483;-50
2021/12/25 11:21:31;;;;;;;1.80;1.20;;;-0.60;99.90;;;;;;5116597;28;20454;-49
2021/12/25 11:24:10;;;;;;;1.37;1.10;;;-0.60;99.90;;;;;;5116837;28;20516;-48
2021/12/25 11:26:38;;;;;;;2.77;0.80;;;-0.60;99.90;;;;;;5112315;28;20440;-49
2021/12/25 11:29:06;;;;;;;0.90;0.63;;;-0.60;99.90;;;;;;5111693;28;20436;-49
2021/12/25 11:31:33;;;;;;;5.60;1.90;;;-0.50;99.90;;;;;;5111130;28;20512;-47
2021/12/25 11:34:00;;;;;;;1.30;0.77;;;-0.50;99.90;;;;;;5110778;28;20495;-48
2021/12/25 11:36:28;;;;;;;17.87;1.53;;;-0.50;99.90;;;;;;5105267;28;20460;-47
2021/12/25 11:38:54;;;;;;;1.80;1.13;;;-0.50;99.90;;;;;;5114785;28;20938;-48
2021/12/25 11:41:27;;;;;;;5.80;1.20;;;-0.50;99.90;;;;;;5115957;28;20471;-51
2021/12/25 11:43:55;;;;;;;1.83;1.17;;;-0.50;99.90;;;;;;5116303;28;20461;-48
2021/12/25 11:46:24;;;;;;;2.17;1.20;;;-0.50;99.90;;;;;;5115911;28;20475;-54
2021/12/25 11:49:06;;;;;;;0.87;0.60;;;-0.50;99.90;;;;;;5115950;28;20444;-56
2021/12/25 11:51:33;;;;;;;5.60;1.10;;;-0.40;99.90;;;;;;5116889;28;20462;-51
2021/12/25 11:54:15;;;;;;;1.00;0.90;;;-0.50;99.90;;;;;;5115684;28;20463;-53
2021/12/25 11:57:03;;;;;;;0.90;0.70;;;-0.40;99.90;;;;;;5119709;28;20444;-55
2021/12/25 12:02:08;;;;;;;1.10;0.80;;;-0.40;99.90;;;;;;5881390;22;20489;-54
2021/12/25 12:04:36;;;;;;;1.00;0.70;;;-0.50;99.90;;;;;;5110730;22;20493;-53
2021/12/25 12:07:08;;;;;;;1.40;0.77;;;-0.50;99.90;;;;;;5091233;28;20459;-50
2021/12/25 12:09:54;;;;;;;1.20;0.87;;;-0.40;99.90;;;;;;5095447;28;20479;-46
2021/12/25 12:12:24;;;;;;;2.03;1.10;;;-0.30;99.90;;;;;;5098823;28;20481;-50
2021/12/25 12:15:19;;;;;;;2.70;1.70;;;-0.30;99.90;;;;;;5099239;28;20438;-47
2021/12/25 12:17:47;;;;;;;0.93;0.70;;;-0.20;99.90;;;;;;5099326;28;20468;-52
2021/12/25 12:20:34;;;;;;;7.40;1.10;;;-0.20;99.90;;;;;;5099471;28;20446;-48
2021/12/25 12:23:18;;;;;;;1.00;0.80;;;-0.20;99.90;;;;;;5098803;28;20475;-50
2021/12/25 12:26:02;;;;;;;1.67;1.00;;;-0.20;99.90;;;;;;5099138;28;20494;-52
2021/12/25 12:28:52;;;;;;;1.00;0.90;;;-0.10;99.90;;;;;;5099506;28;20437;-48
2021/12/25 12:31:44;;;;;;;2.20;0.80;;;-0.20;99.90;;;;;;5099292;28;20445;-54
2021/12/25 12:34:34;;;;;;;1.30;0.87;;;-0.20;99.90;;;;;;5099310;28;20426;-49
2021/12/25 12:37:29;;;;;;;1.10;0.73;;;-0.30;99.90;;;;;;5098604;28;20445;-48
2021/12/25 12:40:25;;;;;;;1.00;0.60;;;-0.30;99.90;;;;;;5099175;28;20439;-51
2021/12/25 12:42:57;;;;;;;0.90;0.60;;;-0.30;99.90;;;;;;5098799;28;20487;-53
2021/12/25 12:45:27;;;;;;;1.00;0.80;;;-0.20;99.90;;;;;;5099391;28;20489;-50
2021/12/25 12:48:18;;;;;;;1.63;0.60;;;-0.30;99.90;;;;;;5099617;28;20470;-48
2021/12/25 12:50:49;;;;;;;1.00;0.90;;;-0.40;99.90;;;;;;5099709;28;20423;-53
2021/12/25 12:53:17;;;;;;;1.67;0.60;;;-0.30;99.90;;;;;;5099278;28;20477;-53
2021/12/25 12:55:45;;;;;;;0.80;0.50;;;-0.30;99.90;;;;;;5098814;28;20423;-52
2021/12/25 12:58:16;;;;;;;1.57;0.87;;;-0.30;99.90;;;;;;5098334;28;20461;-48
2021/12/25 13:00:49;;;;;;;2.80;0.93;;;-0.20;99.90;;;;;;5098828;28;20446;-58
2021/12/25 13:03:17;;;;;;;0.90;0.60;;;-0.20;99.90;;;;;;5098524;28;20489;-53
2021/12/25 13:05:48;;;;;;;1.83;1.27;;;-0.10;99.90;;;;;;5098511;28;20450;-50
2021/12/25 13:08:19;;;;;;;0.90;0.63;;;-0.10;99.90;;;;;;5086067;28;20442;-49
2021/12/25 13:10:51;;;;;;;1.13;0.63;;;0.00;99.90;;;;;;5098361;28;20435;-50
2021/12/25 13:13:21;;;;;;;2.50;0.90;;;0.00;99.90;;;;;;5097117;28;20469;-55
2021/12/25 13:15:56;;;;;;;0.93;0.73;;;0.30;99.90;;;;;;5098233;28;20460;-51
2021/12/25 13:18:28;;;;;;;2.03;1.10;;;0.00;99.90;;;;;;5097814;28;20468;-50
2021/12/25 13:20:55;;;;;;;4.60;2.20;;;0.10;99.90;;;;;;5097917;28;20466;-50
2021/12/25 13:23:26;;;;;;;1.00;0.90;;;0.10;99.90;;;;;;5097681;28;20488;-47
2021/12/25 13:25:58;;;;;;;1.00;0.77;;;0.10;99.90;;;;;;5097814;28;20422;-46
2021/12/25 13:28:27;;;;;;;2.20;0.80;;;0.10;99.90;;;;;;5098163;28;20518;-52
2021/12/25 13:30:58;;;;;;;11.57;1.00;;;0.10;99.90;;;;;;5098143;28;20431;-52
2021/12/25 13:33:27;;;;;;;2.50;1.83;;;0.10;99.90;;;;;;5097678;28;20469;-51
2021/12/25 13:36:06;;;;;;;1.00;0.70;;;0.10;99.90;;;;;;5098536;28;20460;-56
2021/12/25 13:38:47;;;;;;;1.00;0.80;;;0.20;99.90;;;;;;5098599;28;20461;-49
2021/12/25 13:41:14;;;;;;;2.07;1.40;;;0.20;99.90;;;;;;5097353;28;20446;-51
2021/12/25 13:43:41;;;;;;;1.57;1.17;;;0.20;99.90;;;;;;5085401;28;20481;-49
2021/12/25 13:46:09;;;;;;;1.33;0.93;;;0.20;99.90;;;;;;5097358;28;20456;-47
2021/12/25 13:48:38;;;;;;;1.30;1.00;;;0.20;99.90;;;;;;5097445;28;20480;-58
2021/12/25 13:51:05;;;;;;;2.43;1.67;;;0.20;99.90;;;;;;5091412;28;20417;-52